createdAt,value
2018-12-04T10:29:26.358Z,9.20
2018-12-04T10:30:26.313Z,11.20
2018-12-04T10:31:27.306Z,13.00
2018-12-04T10:32:26.287Z,10.10
2018-12-04T10:33:26.262Z,9.80
2018-12-04T10:34:26.409Z,12.80
2018-12-04T10:35:26.269Z,11.70
2018-12-04T10:36:29.286Z,12.70
2018-12-04T10:37:26.398Z,11.60
2018-12-04T10:38:26.344Z,13.50
2018-12-04T10:39:26.195Z,10.60
2018-12-04T10:40:26.201Z,11.90
2018-12-04T10:41:26.374Z,11.90
2018-12-04T10:42:47.157Z,11.10
2018-12-04T10:43:26.131Z,11.00
2018-12-04T10:51:58.573Z,9.00
2018-12-04T10:54:08.364Z,21.20
2018-12-04T10:55:55.720Z,17.70
2018-12-04T10:56:55.843Z,41.50
2018-12-04T11:05:45.070Z,13.40
2018-12-04T11:06:45.061Z,14.00
2018-12-04T11:07:48.187Z,16.70
2018-12-04T11:08:45.011Z,16.40
2018-12-04T13:58:18.938Z,32.80
2018-12-04T13:59:18.937Z,35.60
2018-12-04T14:00:19.057Z,40.20
2018-12-04T14:01:18.889Z,41.30
2018-12-04T14:02:19.055Z,38.50
2018-12-04T14:03:19.025Z,39.70
2018-12-04T14:04:19.526Z,40.70
2018-12-04T14:05:19.014Z,38.70
2018-12-04T14:06:18.987Z,37.70
2018-12-04T14:07:18.962Z,38.10
2018-12-04T14:08:18.961Z,39.20
2018-12-04T14:09:18.955Z,36.40
2018-12-04T14:10:19.528Z,37.30
2018-12-04T14:11:18.937Z,35.50
2018-12-04T14:12:18.901Z,32.80
2018-12-04T14:13:18.774Z,35.70
2018-12-04T14:14:18.902Z,40.30
2018-12-04T14:15:18.883Z,35.20
2018-12-04T14:16:18.944Z,38.40
2018-12-04T14:17:18.876Z,34.50
2018-12-04T14:18:18.885Z,36.10
2018-12-04T14:19:18.862Z,35.80
2018-12-04T14:20:18.907Z,34.10
2018-12-04T14:21:18.851Z,38.00
2018-12-04T14:22:18.899Z,36.40
2018-12-04T14:23:18.762Z,34.80
2018-12-04T14:24:18.773Z,32.20
2018-12-04T14:25:18.786Z,33.00
2018-12-04T14:26:18.733Z,35.10
2018-12-04T14:27:18.589Z,32.60
2018-12-04T14:28:18.626Z,35.30
2018-12-04T14:29:18.774Z,32.30
2018-12-04T14:30:18.699Z,34.20
2018-12-04T14:31:18.760Z,31.70
2018-12-04T14:32:18.681Z,32.50
2018-12-04T14:33:18.699Z,33.00
2018-12-04T14:34:18.681Z,32.90
2018-12-04T14:35:19.644Z,35.20
2018-12-04T14:36:18.648Z,33.60
2018-12-04T14:37:18.659Z,31.80
2018-12-04T14:38:18.606Z,31.60
2018-12-04T14:39:18.484Z,30.90
2018-12-04T14:40:18.775Z,33.30
2018-12-04T14:41:18.595Z,28.80
2018-12-04T14:42:18.544Z,31.30
2018-12-04T14:43:18.545Z,28.40
2018-12-04T14:44:18.392Z,29.80
2018-12-04T14:45:18.525Z,30.80
